Time;durP1;ratioP1;P1;durP2;ratioP2;P2;SDS_P1;SDS_P2;PMS_P1;PMS_P2;Temp;Humidity;BMP_temperature;BMP_pressure;BME280_temperature;BME280_humidity;BME280_pressure;Samples;Min_cycle;Max_cycle;Signal;HPM_P1;HPM_P2
2021/03/04 00:00:06;;;;;;;59.40;23.03;;;;;;;;;;5055760;28;20108;-68
2021/03/04 00:02:32;;;;;;;71.30;23.17;;;;;;;;;;5064431;28;20571;-68
2021/03/04 00:04:57;;;;;;;57.47;22.23;;;;;;;;;;5057411;28;20032;-68
2021/03/04 00:07:22;;;;;;;69.75;22.25;;;;;;;;;;5061584;28;20501;-68
2021/03/04 00:09:47;;;;;;;65.82;24.17;;;;;;;;;;5052462;28;20532;-68
2021/03/04 00:12:12;;;;;;;59.07;23.23;;;;;;;;;;5054086;28;20024;-68
2021/03/04 00:14:38;;;;;;;52.27;24.27;;;;;;;;;;5057008;28;20283;-68
2021/03/04 00:17:03;;;;;;;65.75;24.63;;;;;;;;;;5066354;28;20357;-68
2021/03/04 00:19:28;;;;;;;65.83;24.07;;;;;;;;;;5053535;28;20017;-69
2021/03/04 00:21:53;;;;;;;59.03;23.80;;;;;;;;;;5059229;28;20275;-68
2021/03/04 00:24:18;;;;;;;60.60;24.25;;;;;;;;;;5063358;28;20112;-68
2021/03/04 00:26:44;;;;;;;57.70;23.40;;;;;;;;;;5059679;28;20016;-68
2021/03/04 00:29:11;;;;;;;56.65;22.58;;;;;;;;;;5067504;28;20286;-69
2021/03/04 00:31:36;;;;;;;63.95;24.25;;;;;;;;;;5054980;28;20021;-68
2021/03/04 00:34:02;;;;;;;49.07;22.47;;;;;;;;;;5063847;28;20040;-69
2021/03/04 00:36:27;;;;;;;70.93;24.65;;;;;;;;;;5060662;28;20268;-68
2021/03/04 00:38:52;;;;;;;61.70;24.10;;;;;;;;;;5054354;28;20025;-68
2021/03/04 00:41:17;;;;;;;57.22;22.98;;;;;;;;;;5059717;28;20027;-68
2021/03/04 00:43:42;;;;;;;68.10;25.17;;;;;;;;;;5057896;28;20029;-68
2021/03/04 00:46:08;;;;;;;68.90;23.15;;;;;;;;;;5059002;28;20052;-68
2021/03/04 00:48:33;;;;;;;70.55;24.52;;;;;;;;;;5053898;28;20471;-68
2021/03/04 00:50:58;;;;;;;60.58;24.45;;;;;;;;;;5060325;28;20045;-68
2021/03/04 00:53:23;;;;;;;52.45;22.70;;;;;;;;;;5067472;28;20035;-68
2021/03/04 00:55:48;;;;;;;67.93;25.67;;;;;;;;;;5055245;28;20017;-68
2021/03/04 00:58:13;;;;;;;51.70;22.53;;;;;;;;;;5052166;28;20790;-68
2021/03/04 01:00:39;;;;;;;56.00;24.50;;;;;;;;;;5054673;28;20251;-68
2021/03/04 01:03:04;;;;;;;56.70;22.35;;;;;;;;;;5053571;28;20439;-68
2021/03/04 01:05:30;;;;;;;63.17;23.52;;;;;;;;;;5055757;28;20024;-68
2021/03/04 01:07:55;;;;;;;58.95;23.42;;;;;;;;;;5052276;28;20719;-68
2021/03/04 01:10:26;;;;;;;50.28;23.17;;;;;;;;;;5054390;28;20504;-68
2021/03/04 01:12:51;;;;;;;52.35;23.40;;;;;;;;;;5051334;28;20021;-68
2021/03/04 01:15:18;;;;;;;65.10;25.10;;;;;;;;;;5059251;28;20035;-68
2021/03/04 01:17:44;;;;;;;65.22;22.42;;;;;;;;;;5054907;28;20302;-68
2021/03/04 01:20:13;;;;;;;61.38;23.38;;;;;;;;;;5059117;28;20055;-68
2021/03/04 01:22:38;;;;;;;57.83;25.83;;;;;;;;;;5052498;28;20025;-68
2021/03/04 01:25:04;;;;;;;62.13;24.85;;;;;;;;;;5051877;28;20021;-68
2021/03/04 01:27:29;;;;;;;68.97;26.17;;;;;;;;;;5053163;28;20037;-68
2021/03/04 01:29:55;;;;;;;61.78;27.05;;;;;;;;;;5065760;28;20044;-68
2021/03/04 01:32:20;;;;;;;66.35;25.65;;;;;;;;;;5055817;28;20036;-68
2021/03/04 01:34:45;;;;;;;61.55;25.45;;;;;;;;;;5066086;28;20023;-68
2021/03/04 01:37:10;;;;;;;79.40;26.30;;;;;;;;;;5058531;28;20489;-68
2021/03/04 01:39:35;;;;;;;71.97;25.80;;;;;;;;;;5059142;28;20029;-68
2021/03/04 01:42:01;;;;;;;65.28;25.13;;;;;;;;;;5069184;28;20163;-68
2021/03/04 01:44:26;;;;;;;59.20;24.17;;;;;;;;;;5068892;28;20008;-68
2021/03/04 01:46:51;;;;;;;69.82;25.35;;;;;;;;;;5057754;28;20975;-68
2021/03/04 01:49:16;;;;;;;68.05;25.70;;;;;;;;;;5068011;28;20023;-68
2021/03/04 01:51:41;;;;;;;72.07;26.08;;;;;;;;;;5071439;28;20031;-68
2021/03/04 01:54:07;;;;;;;68.55;27.17;;;;;;;;;;5071319;28;20035;-68
2021/03/04 01:56:33;;;;;;;67.90;27.63;;;;;;;;;;5061449;28;20025;-68
2021/03/04 01:58:58;;;;;;;68.05;28.13;;;;;;;;;;5068353;28;20017;-68
2021/03/04 02:04:26;;;;;;;62.05;25.08;;;;;;;;;;5064740;28;20607;-68
2021/03/04 02:06:52;;;;;;;68.32;26.98;;;;;;;;;;5067484;28;20381;-68
2021/03/04 02:09:20;;;;;;;59.50;25.65;;;;;;;;;;5054871;28;20100;-68
2021/03/04 02:11:47;;;;;;;62.75;26.83;;;;;;;;;;5059449;28;20268;-68
2021/03/04 02:14:17;;;;;;;65.60;27.08;;;;;;;;;;5058768;28;20369;-69
2021/03/04 02:16:45;;;;;;;62.85;26.67;;;;;;;;;;5053001;28;20033;-69
2021/03/04 02:19:22;;;;;;;72.03;29.98;;;;;;;;;;5068772;28;20068;-69
2021/03/04 02:21:54;;;;;;;78.13;27.02;;;;;;;;;;5063954;28;20147;-69
2021/03/04 02:24:31;;;;;;;68.53;28.73;;;;;;;;;;5066825;28;20102;-70
2021/03/04 02:27:00;;;;;;;75.68;28.38;;;;;;;;;;5054207;28;20381;-69
2021/03/04 02:29:26;;;;;;;65.00;27.40;;;;;;;;;;5063927;28;20028;-69
2021/03/04 02:31:53;;;;;;;56.03;23.20;;;;;;;;;;5070734;28;20024;-69
2021/03/04 02:34:19;;;;;;;81.70;27.90;;;;;;;;;;5059700;28;20032;-69
2021/03/04 02:36:45;;;;;;;72.70;29.60;;;;;;;;;;5079199;22;20048;-65
2021/03/04 02:39:12;;;;;;;68.78;29.73;;;;;;;;;;5052117;28;20021;-65
2021/03/04 02:41:37;;;;;;;78.07;29.40;;;;;;;;;;5052983;28;20017;-65
2021/03/04 02:44:04;;;;;;;72.75;28.90;;;;;;;;;;5052288;28;20108;-65
2021/03/04 02:46:30;;;;;;;73.60;30.13;;;;;;;;;;5033626;28;20508;-65
2021/03/04 02:48:55;;;;;;;79.22;28.60;;;;;;;;;;5052102;28;20029;-65
2021/03/04 02:51:20;;;;;;;68.18;28.98;;;;;;;;;;5063978;28;20048;-64
2021/03/04 02:53:46;;;;;;;64.05;29.15;;;;;;;;;;5052396;28;20064;-66
2021/03/04 02:56:11;;;;;;;81.90;32.45;;;;;;;;;;5052766;28;20043;-65
2021/03/04 02:58:37;;;;;;;85.40;31.70;;;;;;;;;;5052127;28;20128;-66
2021/03/04 03:01:02;;;;;;;80.90;30.92;;;;;;;;;;5053428;28;20023;-66
2021/03/04 03:03:28;;;;;;;76.45;29.65;;;;;;;;;;5054595;28;20029;-66
2021/03/04 03:05:53;;;;;;;85.28;30.95;;;;;;;;;;5058671;28;20108;-66
2021/03/04 03:08:18;;;;;;;79.50;30.88;;;;;;;;;;5055776;28;20235;-66
2021/03/04 03:10:48;;;;;;;71.93;30.58;;;;;;;;;;5053010;28;20373;-65
2021/03/04 03:13:15;;;;;;;79.57;30.65;;;;;;;;;;5053002;28;20021;-66
2021/03/04 03:15:40;;;;;;;81.18;30.48;;;;;;;;;;5055066;28;20106;-65
2021/03/04 03:18:06;;;;;;;81.95;31.92;;;;;;;;;;5054052;28;20041;-66
2021/03/04 03:20:31;;;;;;;75.45;29.63;;;;;;;;;;5052022;28;20400;-65
2021/03/04 03:22:56;;;;;;;83.13;30.30;;;;;;;;;;5051744;28;20501;-65
2021/03/04 03:25:21;;;;;;;86.60;30.95;;;;;;;;;;5052750;28;20037;-65
2021/03/04 03:27:47;;;;;;;74.85;32.60;;;;;;;;;;5033350;28;20017;-67
2021/03/04 03:30:14;;;;;;;79.15;32.65;;;;;;;;;;5034101;28;20023;-65
2021/03/04 03:32:41;;;;;;;82.97;32.38;;;;;;;;;;5052815;28;20029;-67
2021/03/04 03:35:07;;;;;;;80.43;30.25;;;;;;;;;;5051664;28;20027;-64
2021/03/04 03:37:34;;;;;;;84.65;31.95;;;;;;;;;;5047107;28;20033;-65
2021/03/04 03:40:00;;;;;;;74.45;31.63;;;;;;;;;;5052117;28;20013;-65
2021/03/04 03:42:25;;;;;;;79.90;31.23;;;;;;;;;;5051170;28;20009;-66
2021/03/04 03:44:52;;;;;;;86.57;31.90;;;;;;;;;;5050907;28;20029;-63
2021/03/04 03:47:17;;;;;;;70.50;30.30;;;;;;;;;;5051328;28;20029;-66
2021/03/04 03:49:43;;;;;;;77.80;29.67;;;;;;;;;;5051808;28;20028;-64
2021/03/04 03:52:09;;;;;;;75.55;32.17;;;;;;;;;;5050921;28;20025;-66
2021/03/04 03:54:35;;;;;;;78.03;30.40;;;;;;;;;;5050721;28;20054;-65
2021/03/04 03:57:01;;;;;;;64.97;27.10;;;;;;;;;;5050487;28;20383;-66
2021/03/04 03:59:27;;;;;;;65.95;29.50;;;;;;;;;;5051038;28;20021;-65
2021/03/04 04:01:52;;;;;;;84.97;33.38;;;;;;;;;;5050631;28;20112;-66
2021/03/04 04:04:18;;;;;;;65.30;29.67;;;;;;;;;;5033109;28;20112;-66
2021/03/04 04:06:44;;;;;;;71.75;29.50;;;;;;;;;;5051145;28;20044;-65
2021/03/04 04:09:09;;;;;;;81.45;30.80;;;;;;;;;;5030985;28;20131;-65
2021/03/04 04:11:35;;;;;;;75.60;32.70;;;;;;;;;;5051683;28;20025;-66
2021/03/04 04:14:01;;;;;;;82.25;34.63;;;;;;;;;;5048304;28;20031;-66
2021/03/04 04:16:26;;;;;;;77.95;32.22;;;;;;;;;;5032989;28;20107;-66
2021/03/04 04:18:52;;;;;;;80.53;30.27;;;;;;;;;;5051628;28;20025;-65
2021/03/04 04:21:17;;;;;;;87.03;31.17;;;;;;;;;;5050301;28;20465;-65
2021/03/04 04:23:43;;;;;;;72.50;29.73;;;;;;;;;;5049436;28;20020;-65
2021/03/04 04:26:09;;;;;;;84.57;32.50;;;;;;;;;;5048272;28;20025;-65
2021/03/04 04:28:34;;;;;;;83.35;32.70;;;;;;;;;;5049418;28;20021;-65
2021/03/04 04:30:59;;;;;;;85.35;33.75;;;;;;;;;;5049856;28;20621;-65
2021/03/04 04:33:24;;;;;;;81.78;32.13;;;;;;;;;;5049940;28;20021;-65
2021/03/04 04:35:50;;;;;;;84.63;33.83;;;;;;;;;;5049481;28;20473;-65
2021/03/04 04:38:15;;;;;;;79.38;32.00;;;;;;;;;;5031867;28;20048;-65
2021/03/04 04:40:41;;;;;;;82.88;33.90;;;;;;;;;;5049102;28;20044;-65
2021/03/04 04:43:06;;;;;;;79.22;33.60;;;;;;;;;;5049585;28;20017;-65
2021/03/04 04:45:31;;;;;;;94.43;35.42;;;;;;;;;;5047811;28;20032;-65
2021/03/04 04:47:56;;;;;;;80.55;31.77;;;;;;;;;;5049839;28;20021;-65
2021/03/04 04:50:22;;;;;;;87.93;34.33;;;;;;;;;;5050717;28;20021;-65
2021/03/04 04:52:47;;;;;;;76.03;30.63;;;;;;;;;;5053673;28;20017;-65
2021/03/04 04:55:12;;;;;;;81.18;33.70;;;;;;;;;;5048891;28;20021;-65
2021/03/04 04:57:37;;;;;;;93.82;33.70;;;;;;;;;;5049716;28;20557;-65
2021/03/04 05:00:06;;;;;;;83.20;33.23;;;;;;;;;;5048911;28;20067;-65
2021/03/04 05:02:32;;;;;;;89.55;33.33;;;;;;;;;;5048029;28;20325;-65
2021/03/04 05:04:57;;;;;;;84.50;34.42;;;;;;;;;;5040571;28;20415;-65
2021/03/04 05:07:22;;;;;;;80.00;32.63;;;;;;;;;;5049727;28;20462;-65
2021/03/04 05:09:47;;;;;;;81.32;33.92;;;;;;;;;;5052299;28;20051;-65
2021/03/04 05:12:12;;;;;;;79.18;32.72;;;;;;;;;;5053448;28;20454;-66
2021/03/04 05:14:38;;;;;;;88.72;33.28;;;;;;;;;;5054069;28;20043;-64
2021/03/04 05:17:03;;;;;;;74.93;33.88;;;;;;;;;;5054269;28;20092;-67
2021/03/04 05:19:28;;;;;;;79.03;33.90;;;;;;;;;;5054445;28;20051;-65
2021/03/04 05:21:53;;;;;;;97.82;35.65;;;;;;;;;;5051530;28;20140;-66
2021/03/04 05:24:19;;;;;;;86.53;32.67;;;;;;;;;;5049997;28;20025;-65
2021/03/04 05:26:44;;;;;;;87.68;34.95;;;;;;;;;;5054216;28;20060;-66
2021/03/04 05:29:09;;;;;;;84.93;33.38;;;;;;;;;;5050833;28;20480;-65
2021/03/04 05:31:34;;;;;;;84.93;34.78;;;;;;;;;;5053684;28;20037;-64
2021/03/04 05:33:59;;;;;;;79.55;33.47;;;;;;;;;;5056948;28;20194;-65
2021/03/04 05:36:25;;;;;;;88.40;34.97;;;;;;;;;;5059153;28;20084;-65
2021/03/04 05:38:50;;;;;;;80.43;32.40;;;;;;;;;;5059918;28;20036;-65
2021/03/04 05:41:18;;;;;;;83.87;35.27;;;;;;;;;;5060547;28;20082;-65
2021/03/04 05:43:44;;;;;;;82.18;34.47;;;;;;;;;;5060490;28;20275;-66
2021/03/04 05:46:09;;;;;;;86.30;35.38;;;;;;;;;;5057866;28;20021;-65
2021/03/04 05:48:35;;;;;;;81.30;34.80;;;;;;;;;;5054049;28;20028;-66
2021/03/04 05:51:00;;;;;;;82.32;28.73;;;;;;;;;;5054164;28;20028;-65
2021/03/04 05:53:26;;;;;;;74.22;30.95;;;;;;;;;;5052788;28;20032;-65
2021/03/04 05:55:51;;;;;;;84.72;33.53;;;;;;;;;;5053154;28;20452;-66
2021/03/04 05:58:17;;;;;;;90.53;32.28;;;;;;;;;;5053622;28;20025;-66
2021/03/04 06:00:43;;;;;;;77.80;31.17;;;;;;;;;;5052985;28;21659;-66
2021/03/04 06:03:08;;;;;;;78.85;32.10;;;;;;;;;;5051849;28;20021;-65
2021/03/04 06:05:34;;;;;;;85.22;32.78;;;;;;;;;;5053607;28;20108;-65
2021/03/04 06:08:01;;;;;;;81.95;34.80;;;;;;;;;;5053531;28;20029;-65
2021/03/04 06:10:28;;;;;;;79.93;33.55;;;;;;;;;;5043151;28;20021;-65
2021/03/04 06:12:53;;;;;;;96.68;35.10;;;;;;;;;;5052307;28;20036;-65
2021/03/04 06:15:20;;;;;;;97.93;36.55;;;;;;;;;;5052894;28;20017;-66
2021/03/04 06:17:53;;;;;;;91.75;37.47;;;;;;;;;;5044737;28;20025;-64
2021/03/04 06:20:18;;;;;;;77.60;28.55;;;;;;;;;;5054797;28;20049;-65
2021/03/04 06:22:45;;;;;;;80.78;28.92;;;;;;;;;;5049705;28;20032;-65
2021/03/04 06:25:11;;;;;;;89.32;34.83;;;;;;;;;;5049625;28;20051;-66
2021/03/04 06:27:38;;;;;;;91.35;32.55;;;;;;;;;;5043263;28;20021;-66
2021/03/04 06:30:11;;;;;;;110.50;40.88;;;;;;;;;;5050142;28;20032;-66
2021/03/04 06:32:38;;;;;;;98.38;40.03;;;;;;;;;;5048021;28;20045;-66
2021/03/04 06:35:05;;;;;;;82.28;30.80;;;;;;;;;;5049137;28;20079;-67
2021/03/04 06:37:31;;;;;;;91.55;32.35;;;;;;;;;;5050037;28;20086;-66
2021/03/04 06:39:56;;;;;;;89.18;36.55;;;;;;;;;;5050447;28;20424;-65
2021/03/04 06:42:23;;;;;;;101.45;39.25;;;;;;;;;;5049644;28;20567;-65
2021/03/04 06:44:52;;;;;;;115.40;48.10;;;;;;;;;;5047426;28;20021;-66
2021/03/04 06:47:21;;;;;;;115.68;44.92;;;;;;;;;;5049197;28;20376;-66
2021/03/04 06:49:47;;;;;;;112.13;43.45;;;;;;;;;;5049414;28;20044;-66
2021/03/04 06:52:22;;;;;;;121.60;45.13;;;;;;;;;;5050092;28;20029;-66
2021/03/04 06:54:47;;;;;;;135.32;51.45;;;;;;;;;;5045626;28;20040;-66
2021/03/04 06:57:13;;;;;;;152.10;55.60;;;;;;;;;;5049235;28;20021;-66
2021/03/04 06:59:41;;;;;;;160.65;57.20;;;;;;;;;;5049131;28;20111;-66
2021/03/04 07:02:07;;;;;;;160.10;63.30;;;;;;;;;;5049997;28;20437;-66
2021/03/04 07:04:32;;;;;;;163.18;62.97;;;;;;;;;;5049077;28;20049;-65
2021/03/04 07:06:59;;;;;;;165.68;61.25;;;;;;;;;;5049208;28;20088;-66
2021/03/04 07:09:24;;;;;;;165.13;67.55;;;;;;;;;;5050408;28;20109;-66
2021/03/04 07:11:50;;;;;;;163.57;64.97;;;;;;;;;;5050834;28;20468;-66
2021/03/04 07:14:16;;;;;;;156.90;61.33;;;;;;;;;;5050887;28;20485;-66
2021/03/04 07:16:45;;;;;;;160.18;64.32;;;;;;;;;;5049869;28;20020;-65
2021/03/04 07:19:11;;;;;;;150.98;64.97;;;;;;;;;;5050165;28;20013;-66
2021/03/04 07:21:41;;;;;;;154.82;62.88;;;;;;;;;;5049845;28;20028;-66
2021/03/04 07:24:06;;;;;;;155.95;62.65;;;;;;;;;;5044207;28;20466;-66
2021/03/04 07:26:32;;;;;;;139.57;59.63;;;;;;;;;;5049625;28;20055;-66
2021/03/04 07:28:58;;;;;;;151.00;61.42;;;;;;;;;;5051120;28;20480;-65
2021/03/04 07:31:23;;;;;;;151.05;59.97;;;;;;;;;;5043370;28;20531;-65
2021/03/04 07:33:49;;;;;;;154.52;61.17;;;;;;;;;;5047694;28;20099;-65
2021/03/04 07:36:18;;;;;;;145.10;63.17;;;;;;;;;;5049792;28;20037;-64
2021/03/04 07:38:52;;;;;;;153.82;62.17;;;;;;;;;;5057870;28;20013;-65
2021/03/04 07:41:17;;;;;;;155.18;60.47;;;;;;;;;;5044627;28;20107;-65
2021/03/04 07:43:50;;;;;;;150.50;58.73;;;;;;;;;;5050912;28;20107;-66
2021/03/04 07:46:28;;;;;;;149.57;63.00;;;;;;;;;;5050366;28;20264;-66
2021/03/04 07:48:54;;;;;;;157.50;63.47;;;;;;;;;;5050379;28;20016;-65
2021/03/04 07:51:19;;;;;;;148.38;61.05;;;;;;;;;;5050897;28;20420;-66
2021/03/04 07:53:45;;;;;;;149.13;64.22;;;;;;;;;;5049841;28;20389;-65
2021/03/04 07:56:21;;;;;;;154.25;62.63;;;;;;;;;;5048875;28;20788;-65
2021/03/04 07:58:46;;;;;;;152.93;61.47;;;;;;;;;;5049502;28;20033;-65
2021/03/04 08:01:11;;;;;;;162.02;63.30;;;;;;;;;;5049008;28;20023;-65
2021/03/04 08:03:50;;;;;;;126.95;54.47;;;;;;;;;;5050139;28;20071;-65
2021/03/04 08:06:16;;;;;;;117.80;52.25;;;;;;;;;;5050379;28;20465;-64
2021/03/04 08:08:41;;;;;;;112.70;49.88;;;;;;;;;;5050384;28;20029;-65
2021/03/04 08:11:07;;;;;;;119.05;51.40;;;;;;;;;;5046515;28;20108;-66
2021/03/04 08:13:33;;;;;;;118.43;52.08;;;;;;;;;;5047189;28;20024;-64
2021/03/04 08:15:58;;;;;;;110.20;47.03;;;;;;;;;;5050619;28;20065;-64
2021/03/04 08:18:24;;;;;;;107.20;45.85;;;;;;;;;;5050085;28;20082;-67
2021/03/04 08:20:53;;;;;;;103.88;47.05;;;;;;;;;;5049504;28;20055;-65
2021/03/04 08:23:19;;;;;;;103.50;46.45;;;;;;;;;;5047116;28;20020;-65
2021/03/04 08:25:45;;;;;;;108.00;46.63;;;;;;;;;;5044522;28;20481;-65
2021/03/04 08:28:19;;;;;;;104.07;45.90;;;;;;;;;;5050169;28;20021;-65
2021/03/04 08:30:45;;;;;;;103.00;44.50;;;;;;;;;;5051002;28;20044;-66
2021/03/04 08:33:14;;;;;;;104.85;46.35;;;;;;;;;;5050229;28;20033;-65
2021/03/04 08:35:41;;;;;;;102.60;48.15;;;;;;;;;;5097285;23;20474;-68
2021/03/04 08:38:08;;;;;;;121.50;54.85;;;;;;;;;;5049640;28;20024;-68
2021/03/04 08:40:53;;;;;;;113.82;50.17;;;;;;;;;;5050531;28;20675;-68
2021/03/04 08:43:18;;;;;;;112.15;50.55;;;;;;;;;;5049134;28;20023;-68
2021/03/04 08:45:44;;;;;;;108.35;46.85;;;;;;;;;;5048421;28;20021;-68
2021/03/04 08:48:10;;;;;;;113.68;50.58;;;;;;;;;;5049527;28;20028;-68
2021/03/04 08:50:39;;;;;;;104.57;45.28;;;;;;;;;;5050013;28;20025;-68
2021/03/04 08:53:28;;;;;;;115.40;53.22;;;;;;;;;;5049284;28;20024;-68
2021/03/04 08:55:56;;;;;;;124.25;51.47;;;;;;;;;;5035734;28;20041;-67
2021/03/04 08:58:23;;;;;;;120.07;53.97;;;;;;;;;;5043749;28;20430;-68
2021/03/04 09:00:51;;;;;;;130.05;55.42;;;;;;;;;;5045576;28;20028;-68
2021/03/04 09:03:17;;;;;;;129.60;55.42;;;;;;;;;;5049810;28;20377;-68
2021/03/04 09:05:42;;;;;;;126.22;56.72;;;;;;;;;;5049558;28;20028;-68
2021/03/04 09:08:14;;;;;;;119.13;51.20;;;;;;;;;;5042165;28;20075;-68
2021/03/04 09:10:41;;;;;;;115.35;53.72;;;;;;;;;;5041578;28;20264;-68
2021/03/04 09:13:07;;;;;;;125.72;55.53;;;;;;;;;;5049634;28;20033;-68
2021/03/04 09:15:32;;;;;;;118.65;54.22;;;;;;;;;;5048706;28;20020;-68
2021/03/04 09:18:04;;;;;;;126.00;53.92;;;;;;;;;;5050065;28;20025;-68
2021/03/04 09:20:29;;;;;;;133.93;56.45;;;;;;;;;;5049689;28;20017;-68
2021/03/04 09:22:54;;;;;;;135.15;58.83;;;;;;;;;;5048995;28;20044;-68
2021/03/04 09:25:20;;;;;;;132.77;57.67;;;;;;;;;;5049417;28;20080;-68
2021/03/04 09:27:46;;;;;;;143.05;63.03;;;;;;;;;;5049664;28;20025;-68
2021/03/04 09:30:21;;;;;;;137.50;59.90;;;;;;;;;;5049773;28;20104;-68
2021/03/04 09:32:47;;;;;;;159.40;64.15;;;;;;;;;;5066206;28;20024;-68
2021/03/04 09:35:12;;;;;;;159.25;62.13;;;;;;;;;;5053966;28;20031;-68
2021/03/04 09:37:38;;;;;;;159.27;58.97;;;;;;;;;;5049560;28;20021;-69
2021/03/04 09:40:03;;;;;;;157.85;60.60;;;;;;;;;;5049163;28;20108;-69
2021/03/04 09:42:38;;;;;;;158.05;61.22;;;;;;;;;;5049409;28;20270;-69
2021/03/04 09:45:04;;;;;;;155.48;62.92;;;;;;;;;;5049363;28;20017;-69
2021/03/04 09:47:30;;;;;;;135.13;56.75;;;;;;;;;;5048301;28;20496;-68
2021/03/04 09:49:56;;;;;;;146.18;60.72;;;;;;;;;;5049071;28;20017;-68
2021/03/04 09:52:21;;;;;;;135.18;58.05;;;;;;;;;;5048703;28;20032;-68
2021/03/04 09:54:47;;;;;;;140.50;56.10;;;;;;;;;;5049344;28;20025;-68
2021/03/04 09:57:15;;;;;;;141.20;55.92;;;;;;;;;;5052162;28;20060;-68
2021/03/04 09:59:47;;;;;;;138.93;53.05;;;;;;;;;;5052708;28;20021;-69
2021/03/04 10:02:13;;;;;;;135.68;53.83;;;;;;;;;;5052573;28;20031;-68
2021/03/04 10:04:50;;;;;;;126.78;51.28;;;;;;;;;;5043259;28;20021;-68
2021/03/04 10:07:15;;;;;;;130.13;49.95;;;;;;;;;;5048400;28;20086;-68
2021/03/04 10:09:46;;;;;;;129.93;53.55;;;;;;;;;;5052872;28;20028;-68
2021/03/04 10:12:11;;;;;;;146.70;58.53;;;;;;;;;;5052360;28;20112;-68
2021/03/04 10:14:43;;;;;;;131.55;54.70;;;;;;;;;;5053213;28;20108;-68
2021/03/04 10:17:08;;;;;;;118.57;51.17;;;;;;;;;;5052288;28;20063;-68
2021/03/04 10:19:33;;;;;;;112.50;48.10;;;;;;;;;;5052786;28;20469;-68
2021/03/04 10:21:58;;;;;;;114.47;47.60;;;;;;;;;;5052176;28;20101;-68
2021/03/04 10:24:23;;;;;;;122.57;49.17;;;;;;;;;;5052043;28;20286;-68
2021/03/04 10:26:49;;;;;;;120.20;51.03;;;;;;;;;;5052771;28;20036;-68
2021/03/04 10:29:14;;;;;;;124.32;53.05;;;;;;;;;;5052124;28;20162;-68
2021/03/04 10:31:40;;;;;;;137.48;50.65;;;;;;;;;;5051793;28;20456;-68
2021/03/04 10:34:05;;;;;;;121.40;50.90;;;;;;;;;;5051744;28;20033;-68
2021/03/04 10:36:30;;;;;;;128.63;51.92;;;;;;;;;;5051789;28;20079;-67
2021/03/04 10:38:55;;;;;;;114.37;48.40;;;;;;;;;;5051685;28;20112;-69
2021/03/04 10:41:20;;;;;;;118.13;48.00;;;;;;;;;;5051784;28;20458;-67
2021/03/04 10:43:46;;;;;;;115.37;48.03;;;;;;;;;;5050905;28;20028;-67
2021/03/04 10:46:11;;;;;;;104.87;45.67;;;;;;;;;;5050604;28;20321;-67
2021/03/04 10:48:36;;;;;;;112.97;47.97;;;;;;;;;;5052165;28;20271;-67
2021/03/04 10:51:01;;;;;;;96.97;42.47;;;;;;;;;;5051024;28;20286;-68
2021/03/04 10:53:26;;;;;;;107.43;43.17;;;;;;;;;;5018945;28;20021;-68
2021/03/04 10:55:51;;;;;;;103.07;44.25;;;;;;;;;;5064379;28;20389;-68
2021/03/04 10:58:17;;;;;;;106.15;44.97;;;;;;;;;;5052456;28;20025;-68
2021/03/04 11:00:42;;;;;;;103.78;43.60;;;;;;;;;;5051153;28;20408;-67
2021/03/04 11:03:07;;;;;;;90.13;39.08;;;;;;;;;;5050707;28;20021;-68
2021/03/04 11:05:32;;;;;;;84.72;36.90;;;;;;;;;;5049636;28;20515;-67
2021/03/04 11:07:58;;;;;;;84.43;35.63;;;;;;;;;;5050461;28;20025;-68
2021/03/04 11:10:23;;;;;;;87.95;36.25;;;;;;;;;;5052030;28;20473;-67
2021/03/04 11:12:48;;;;;;;69.15;32.83;;;;;;;;;;5050999;28;20017;-68
2021/03/04 11:15:14;;;;;;;69.60;33.35;;;;;;;;;;5051488;28;21475;-68
2021/03/04 11:17:39;;;;;;;77.15;34.72;;;;;;;;;;5051448;28;20044;-67
2021/03/04 11:20:05;;;;;;;78.18;33.55;;;;;;;;;;5050272;28;20055;-68
2021/03/04 11:22:30;;;;;;;87.18;35.60;;;;;;;;;;5050660;28;20017;-68
2021/03/04 11:24:55;;;;;;;80.45;36.17;;;;;;;;;;5051579;28;20090;-67
2021/03/04 11:27:20;;;;;;;92.13;41.95;;;;;;;;;;5033347;28;20029;-68
2021/03/04 11:29:46;;;;;;;82.80;36.92;;;;;;;;;;5050957;28;20104;-68
2021/03/04 11:32:11;;;;;;;82.70;38.25;;;;;;;;;;5050649;28;20108;-67
2021/03/04 11:34:36;;;;;;;85.65;37.72;;;;;;;;;;5050930;28;20025;-67
2021/03/04 11:37:02;;;;;;;86.53;39.70;;;;;;;;;;5048890;28;20068;-67
2021/03/04 11:39:27;;;;;;;86.07;38.65;;;;;;;;;;5048722;28;20290;-67
2021/03/04 11:41:53;;;;;;;91.75;42.72;;;;;;;;;;5050728;28;20425;-68
2021/03/04 11:44:18;;;;;;;93.25;41.47;;;;;;;;;;5049477;28;20033;-67
2021/03/04 11:46:43;;;;;;;93.65;41.15;;;;;;;;;;5050002;28;20040;-67
2021/03/04 11:49:09;;;;;;;92.28;40.97;;;;;;;;;;5050940;28;20057;-67
2021/03/04 11:51:34;;;;;;;96.72;43.03;;;;;;;;;;5050606;28;20021;-67
2021/03/04 11:53:59;;;;;;;104.43;43.00;;;;;;;;;;5048755;28;20035;-68
2021/03/04 11:56:24;;;;;;;94.38;42.13;;;;;;;;;;5049723;28;20029;-67
2021/03/04 11:58:50;;;;;;;99.95;43.75;;;;;;;;;;5050929;28;20100;-67
2021/03/04 12:01:15;;;;;;;105.38;44.60;;;;;;;;;;5050593;28;20067;-67
2021/03/04 12:03:41;;;;;;;109.55;44.85;;;;;;;;;;5050296;28;20432;-67
2021/03/04 12:06:06;;;;;;;102.03;45.63;;;;;;;;;;5049423;28;20017;-67
2021/03/04 12:08:31;;;;;;;100.32;44.03;;;;;;;;;;5050320;28;20264;-67
2021/03/04 12:10:57;;;;;;;109.05;47.13;;;;;;;;;;5048877;28;20112;-67
2021/03/04 12:13:23;;;;;;;101.55;46.22;;;;;;;;;;5049695;28;20180;-68
2021/03/04 12:15:49;;;;;;;109.57;46.17;;;;;;;;;;5049944;28;20051;-68
2021/03/04 12:18:14;;;;;;;112.20;47.90;;;;;;;;;;5049923;28;20020;-68
2021/03/04 12:20:39;;;;;;;113.30;47.15;;;;;;;;;;5050352;28;20044;-67
2021/03/04 12:23:06;;;;;;;120.22;48.63;;;;;;;;;;5049019;28;20020;-68
2021/03/04 12:25:32;;;;;;;113.22;47.20;;;;;;;;;;5044425;28;20033;-68
2021/03/04 12:27:57;;;;;;;106.97;47.50;;;;;;;;;;5049099;28;20453;-68
2021/03/04 12:30:23;;;;;;;104.68;47.25;;;;;;;;;;5050451;28;20263;-68
2021/03/04 12:32:48;;;;;;;111.43;48.33;;;;;;;;;;5053169;28;20028;-68
2021/03/04 12:35:14;;;;;;;121.63;51.20;;;;;;;;;;5056998;28;20029;-68
2021/03/04 12:37:40;;;;;;;120.78;54.95;;;;;;;;;;5061119;28;20095;-68
2021/03/04 12:40:06;;;;;;;112.75;51.33;;;;;;;;;;5047720;28;20020;-68
2021/03/04 12:42:31;;;;;;;121.25;52.63;;;;;;;;;;5049953;28;20032;-68
2021/03/04 12:44:56;;;;;;;112.57;49.05;;;;;;;;;;5048829;28;20558;-68
2021/03/04 12:47:22;;;;;;;114.50;51.58;;;;;;;;;;5049911;28;20020;-68
2021/03/04 12:49:47;;;;;;;115.72;50.83;;;;;;;;;;5049547;28;20036;-68
2021/03/04 12:52:12;;;;;;;116.53;51.10;;;;;;;;;;5049140;28;20033;-68
2021/03/04 12:54:37;;;;;;;115.18;50.17;;;;;;;;;;5050069;28;20025;-67
2021/03/04 12:57:03;;;;;;;108.43;48.97;;;;;;;;;;5047697;28;20214;-67
2021/03/04 12:59:28;;;;;;;101.28;44.10;;;;;;;;;;5049426;28;20056;-68
2021/03/04 13:01:53;;;;;;;92.38;39.78;;;;;;;;;;5050057;28;20021;-68
2021/03/04 13:04:19;;;;;;;72.88;34.50;;;;;;;;;;5049354;28;20079;-68
2021/03/04 13:06:44;;;;;;;60.92;28.88;;;;;;;;;;5038989;28;20524;-68
2021/03/04 13:09:10;;;;;;;61.05;28.33;;;;;;;;;;5049339;28;20029;-68
2021/03/04 13:11:36;;;;;;;54.70;26.40;;;;;;;;;;5038105;28;20057;-67
2021/03/04 13:14:01;;;;;;;53.42;26.98;;;;;;;;;;5047227;28;20500;-68
2021/03/04 13:16:27;;;;;;;55.03;25.98;;;;;;;;;;5048944;28;20028;-68
2021/03/04 13:18:53;;;;;;;47.63;23.50;;;;;;;;;;5049539;28;20087;-68
2021/03/04 13:21:18;;;;;;;47.00;23.15;;;;;;;;;;5030779;28;20025;-68
2021/03/04 13:23:43;;;;;;;45.85;22.67;;;;;;;;;;5058769;28;20029;-68
2021/03/04 13:26:08;;;;;;;54.10;26.17;;;;;;;;;;5049263;28;20021;-68
2021/03/04 13:28:33;;;;;;;52.35;22.77;;;;;;;;;;5051942;28;20025;-67
2021/03/04 13:30:59;;;;;;;53.60;24.63;;;;;;;;;;5049568;28;20316;-68
2021/03/04 13:33:24;;;;;;;50.20;25.10;;;;;;;;;;5051645;28;20047;-68
2021/03/04 13:35:49;;;;;;;69.30;32.10;;;;;;;;;;5052595;28;20033;-67
2021/03/04 13:38:14;;;;;;;74.07;31.13;;;;;;;;;;5052589;28;20452;-69
2021/03/04 13:40:40;;;;;;;67.63;28.70;;;;;;;;;;5052456;28;20013;-69
2021/03/04 13:43:05;;;;;;;72.57;30.05;;;;;;;;;;5049886;28;20024;-69
2021/03/04 13:45:31;;;;;;;73.95;31.77;;;;;;;;;;5052851;28;20108;-69
2021/03/04 13:47:56;;;;;;;66.13;30.05;;;;;;;;;;5053280;28;20020;-69
2021/03/04 13:50:21;;;;;;;76.20;32.03;;;;;;;;;;5050953;28;21403;-69
2021/03/04 13:52:46;;;;;;;57.10;25.00;;;;;;;;;;5052570;28;20424;-68
2021/03/04 13:55:12;;;;;;;47.17;20.20;;;;;;;;;;5051665;28;20040;-69
2021/03/04 13:57:37;;;;;;;40.97;17.92;;;;;;;;;;5035017;28;20071;-69
2021/03/04 14:00:03;;;;;;;38.30;17.88;;;;;;;;;;5052804;28;20029;-69
2021/03/04 14:02:28;;;;;;;33.42;14.75;;;;;;;;;;5052271;28;20021;-69
2021/03/04 14:04:53;;;;;;;45.22;19.83;;;;;;;;;;5053233;28;20029;-68
2021/03/04 14:07:18;;;;;;;59.15;21.92;;;;;;;;;;5052343;28;20028;-69